Time;durP1;ratioP1;P1;durP2;ratioP2;P2;SDS_P1;SDS_P2;PMS_P1;PMS_P2;Temp;Humidity;BMP_temperature;BMP_pressure;BME280_temperature;BME280_humidity;BME280_pressure;Samples;Min_cycle;Max_cycle;Signal;HPM_P1;HPM_P2
2022/06/01 01:12:56;;;;;;;6.03;4.05;;;;;;;;;;6144129;22;1747639;-94
2022/06/01 01:16:04;;;;;;;7.15;3.83;;;;;;;;;;6174313;23;20197;-92
2022/06/01 01:19:17;;;;;;;10.70;4.47;;;;;;;;;;6173947;23;20169;-93
2022/06/01 01:22:39;;;;;;;7.72;4.55;;;;;;;;;;6174391;23;20212;-94
2022/06/01 01:25:51;;;;;;;8.80;4.13;;;;;;;;;;6174475;23;20220;-93
2022/06/01 01:28:58;;;;;;;6.28;4.35;;;;;;;;;;6175197;23;20216;-92
2022/06/01 01:32:14;;;;;;;6.78;4.43;;;;;;;;;;6175205;23;20535;-94
2022/06/01 01:35:21;;;;;;;9.80;4.20;;;;;;;;;;6173246;23;20173;-93
2022/06/01 01:38:37;;;;;;;5.38;4.03;;;;;;;;;;6175117;23;20558;-91
2022/06/01 01:41:47;;;;;;;10.18;4.88;;;;;;;;;;6173119;23;20169;-94
2022/06/01 01:45:04;;;;;;;6.57;4.30;;;;;;;;;;6172743;23;20196;-93
2022/06/01 01:48:13;;;;;;;11.07;4.82;;;;;;;;;;6172756;23;20235;-93
2022/06/01 01:54:54;;;;;;;9.50;4.45;;;;;;;;;;6172049;23;20241;-94
2022/06/01 01:58:12;;;;;;;8.93;4.60;;;;;;;;;;6171374;23;20657;-92
2022/06/01 02:01:27;;;;;;;7.55;4.38;;;;;;;;;;6173350;23;20164;-93
2022/06/01 02:08:10;;;;;;;8.73;4.35;;;;;;;;;;6173519;23;20208;-93
2022/06/01 02:14:46;;;;;;;6.68;4.60;;;;;;;;;;6149519;23;20184;-93
2022/06/01 02:17:56;;;;;;;5.95;4.60;;;;;;;;;;6175195;23;20297;-93
2022/06/01 02:25:36;;;;;;;9.43;5.28;;;;;;;;;;6176077;23;20169;-93
2022/06/01 02:28:48;;;;;;;7.28;4.85;;;;;;;;;;6175000;23;20168;-92
2022/06/01 02:31:56;;;;;;;10.00;4.93;;;;;;;;;;6174279;23;20209;-95
2022/06/01 02:35:10;;;;;;;13.68;4.95;;;;;;;;;;6174794;23;20194;-92
2022/06/01 02:38:21;;;;;;;9.18;4.88;;;;;;;;;;6174349;23;20210;-93
2022/06/01 02:44:54;;;;;;;9.13;5.40;;;;;;;;;;6174670;23;20199;-93
2022/06/01 02:48:04;;;;;;;8.18;5.22;;;;;;;;;;6175373;23;20157;-92
2022/06/01 02:51:10;;;;;;;9.32;5.22;;;;;;;;;;6175180;23;20148;-93
2022/06/01 02:54:18;;;;;;;11.88;4.93;;;;;;;;;;6175010;23;20236;-92
2022/06/01 03:00:54;;;;;;;9.35;5.70;;;;;;;;;;6172606;23;20184;-93
2022/06/01 03:04:08;;;;;;;10.45;5.43;;;;;;;;;;6172217;23;20192;-92
2022/06/01 03:07:18;;;;;;;8.75;5.40;;;;;;;;;;6173758;23;20168;-92
2022/06/01 03:10:39;;;;;;;10.85;5.40;;;;;;;;;;6172565;23;20288;-92
2022/06/01 03:13:45;;;;;;;9.43;5.78;;;;;;;;;;6171179;23;20244;-93
2022/06/01 03:16:52;;;;;;;8.60;5.95;;;;;;;;;;6171818;23;20222;-94
2022/06/01 03:27:53;;;;;;;11.95;6.20;;;;;;;;;;6174026;23;20164;-93
2022/06/01 03:31:02;;;;;;;11.93;6.25;;;;;;;;;;6172677;23;20241;-92
2022/06/01 03:34:30;;;;;;;7.68;4.88;;;;;;;;;;6172427;23;20193;-91
2022/06/01 03:37:36;;;;;;;8.90;5.80;;;;;;;;;;6173942;23;20156;-92
2022/06/01 03:40:53;;;;;;;11.70;5.45;;;;;;;;;;6174414;23;20168;-93
2022/06/01 03:47:31;;;;;;;13.25;6.60;;;;;;;;;;6174365;23;20172;-91
2022/06/01 03:50:45;;;;;;;12.18;6.30;;;;;;;;;;6173997;23;20168;-93
2022/06/01 03:53:51;;;;;;;10.35;5.93;;;;;;;;;;6173390;23;20168;-92
2022/06/01 03:57:02;;;;;;;9.70;5.70;;;;;;;;;;6174430;23;20168;-94
2022/06/01 04:00:12;;;;;;;7.68;5.93;;;;;;;;;;6174187;23;20172;-95
2022/06/01 04:03:24;;;;;;;13.07;6.13;;;;;;;;;;6173943;23;20305;-93
2022/06/01 04:06:31;;;;;;;15.02;5.95;;;;;;;;;;6175107;23;20181;-92
2022/06/01 04:14:02;;;;;;;10.88;5.95;;;;;;;;;;6175230;23;20161;-93
2022/06/01 04:17:08;;;;;;;11.18;5.68;;;;;;;;;;6175861;23;20197;-93
2022/06/01 04:20:15;;;;;;;11.02;5.93;;;;;;;;;;6172385;23;20168;-94
2022/06/01 04:23:21;;;;;;;12.02;7.30;;;;;;;;;;6171657;23;20173;-91
2022/06/01 04:26:27;;;;;;;12.07;6.85;;;;;;;;;;6175528;23;20168;-93
2022/06/01 04:29:37;;;;;;;14.55;6.38;;;;;;;;;;6172692;23;20664;-93
2022/06/01 04:32:44;;;;;;;16.08;6.93;;;;;;;;;;6172236;23;20168;-92
2022/06/01 04:35:54;;;;;;;13.02;6.15;;;;;;;;;;6171251;23;20173;-92
2022/06/01 04:39:04;;;;;;;9.10;6.15;;;;;;;;;;6172148;23;20205;-91
2022/06/01 04:45:32;;;;;;;12.23;5.82;;;;;;;;;;6170938;23;20212;-92
2022/06/01 04:48:49;;;;;;;11.77;6.03;;;;;;;;;;6173199;23;20216;-93
2022/06/01 04:51:59;;;;;;;13.88;6.25;;;;;;;;;;6174482;23;20173;-92
2022/06/01 04:55:07;;;;;;;16.42;6.57;;;;;;;;;;6175211;23;20493;-93
2022/06/01 04:58:13;;;;;;;10.82;6.43;;;;;;;;;;6175050;23;20169;-93
2022/06/01 05:01:22;;;;;;;10.70;6.10;;;;;;;;;;6174436;23;20237;-92
2022/06/01 05:04:28;;;;;;;13.63;5.90;;;;;;;;;;6175085;23;20179;-91
2022/06/01 05:07:35;;;;;;;9.52;5.22;;;;;;;;;;6176278;23;20161;-91
2022/06/01 05:10:41;;;;;;;11.35;5.88;;;;;;;;;;6176324;23;20208;-91
2022/06/01 05:13:47;;;;;;;10.50;5.75;;;;;;;;;;6174976;23;20216;-92
2022/06/01 05:16:58;;;;;;;8.13;5.70;;;;;;;;;;6177617;23;20157;-89
2022/06/01 05:20:08;;;;;;;12.13;5.88;;;;;;;;;;6175986;23;20202;-92
2022/06/01 05:23:13;;;;;;;9.70;5.47;;;;;;;;;;6173020;23;20185;-91
2022/06/01 05:26:18;;;;;;;9.85;5.80;;;;;;;;;;6173981;23;20172;-92
2022/06/01 05:29:23;;;;;;;19.13;5.68;;;;;;;;;;6174108;23;20173;-92
2022/06/01 05:32:31;;;;;;;12.52;5.75;;;;;;;;;;6174047;23;20153;-93
2022/06/01 05:38:58;;;;;;;7.90;5.00;;;;;;;;;;6177788;23;20200;-94
2022/06/01 22:12:11;;;;;;;7.53;2.55;;;;;;;;;;6194476;23;20191;-92
2022/06/01 22:24:44;;;;;;;7.68;4.00;;;;;;;;;;6222896;23;20186;-93
2022/06/01 22:31:11;;;;;;;5.78;2.38;;;;;;;;;;6220387;23;20159;-92
2022/06/01 22:34:17;;;;;;;4.28;2.00;;;;;;;;;;6219896;23;20195;-92
2022/06/01 22:37:31;;;;;;;6.25;2.35;;;;;;;;;;6222078;23;20166;-91
2022/06/01 22:40:41;;;;;;;3.55;2.20;;;;;;;;;;6221520;23;20163;-92
2022/06/01 22:43:47;;;;;;;4.13;2.38;;;;;;;;;;6219747;23;20176;-93
2022/06/01 22:46:55;;;;;;;5.13;2.55;;;;;;;;;;6219562;23;20167;-91
2022/06/01 22:50:03;;;;;;;4.45;2.90;;;;;;;;;;6215604;23;20210;-91
2022/06/01 22:53:12;;;;;;;5.20;2.83;;;;;;;;;;6214107;23;20166;-91
2022/06/01 22:56:17;;;;;;;4.18;2.90;;;;;;;;;;6213815;23;20186;-90
2022/06/01 22:59:23;;;;;;;6.07;2.83;;;;;;;;;;6214960;23;20196;-91
2022/06/01 23:02:28;;;;;;;4.05;2.60;;;;;;;;;;6214589;23;20163;-92
2022/06/01 23:05:35;;;;;;;4.55;2.60;;;;;;;;;;6211979;23;20218;-92
2022/06/01 23:08:41;;;;;;;4.68;2.40;;;;;;;;;;6211507;23;20147;-90
2022/06/01 23:11:47;;;;;;;5.53;2.40;;;;;;;;;;6214292;23;20171;-92
2022/06/01 23:14:52;;;;;;;3.90;2.25;;;;;;;;;;6212724;23;20191;-92
2022/06/01 23:17:57;;;;;;;5.28;1.90;;;;;;;;;;6212874;23;20167;-92
2022/06/01 23:25:24;;;;;;;3.45;2.13;;;;;;;;;;6230460;23;20183;-92
2022/06/01 23:28:30;;;;;;;3.83;2.40;;;;;;;;;;6212229;23;20211;-92
2022/06/01 23:31:42;;;;;;;4.10;2.65;;;;;;;;;;6213322;23;20171;-91
2022/06/01 23:34:56;;;;;;;3.47;2.40;;;;;;;;;;6213279;23;20195;-92
2022/06/01 23:38:15;;;;;;;5.40;2.30;;;;;;;;;;6212221;23;20151;-92
2022/06/01 23:41:33;;;;;;;3.95;2.25;;;;;;;;;;6212740;23;20607;-90
2022/06/01 23:44:50;;;;;;;2.58;2.20;;;;;;;;;;6211913;23;20179;-92
2022/06/01 23:48:01;;;;;;;3.17;2.50;;;;;;;;;;6211912;23;20199;-93
2022/06/01 23:51:12;;;;;;;4.85;2.28;;;;;;;;;;6214165;23;20155;-92
2022/06/01 23:54:25;;;;;;;6.10;2.60;;;;;;;;;;6213203;23;20170;-92
2022/06/01 23:57:38;;;;;;;8.13;2.63;;;;;;;;;;6215321;23;20175;-92
